createdAt,value
2019-02-19T00:00:30.448Z,127.63
2019-02-19T00:02:59.906Z,140.00
2019-02-19T00:05:29.465Z,157.27
2019-02-19T00:07:58.945Z,195.10
2019-02-19T00:10:28.395Z,147.87
2019-02-19T00:12:57.861Z,135.50
2019-02-19T00:15:27.353Z,125.83
2019-02-19T00:17:56.801Z,151.20
2019-02-19T00:20:26.265Z,197.00
2019-02-19T00:22:55.755Z,184.10
2019-02-19T00:25:25.040Z,167.03
2019-02-19T00:27:54.498Z,185.63
2019-02-19T00:30:24.043Z,157.50
2019-02-19T00:32:53.514Z,135.43
2019-02-19T00:35:22.975Z,154.60
2019-02-19T00:37:52.471Z,157.53
2019-02-19T00:40:21.928Z,163.83
2019-02-19T00:42:51.499Z,127.07
2019-02-19T00:45:20.993Z,133.00
2019-02-19T00:47:50.456Z,184.50
2019-02-19T00:50:19.952Z,178.63
2019-02-19T00:52:49.398Z,177.63
2019-02-19T00:55:18.857Z,184.73
2019-02-19T00:57:48.322Z,154.03
2019-02-19T01:00:17.876Z,147.93
2019-02-19T01:02:47.344Z,168.10
2019-02-19T01:05:16.801Z,135.30
2019-02-19T01:07:46.514Z,152.33
2019-02-19T01:10:15.977Z,125.23
2019-02-19T01:12:45.436Z,184.90
2019-02-19T01:15:14.917Z,167.97
2019-02-19T01:17:44.382Z,144.73
2019-02-19T01:20:13.833Z,136.93
2019-02-19T01:22:43.323Z,130.80
2019-02-19T01:25:12.770Z,118.90
2019-02-19T01:27:42.216Z,134.33
2019-02-19T01:30:12.303Z,140.40
2019-02-19T01:32:41.769Z,124.13
2019-02-19T01:35:11.224Z,123.30
2019-02-19T01:37:40.720Z,130.23
2019-02-19T01:40:10.952Z,129.27
2019-02-19T01:42:40.438Z,140.80
2019-02-19T01:45:10.561Z,126.80
2019-02-19T01:47:40.015Z,123.07
2019-02-19T01:50:10.674Z,127.83
2019-02-19T01:52:40.156Z,138.30
2019-02-19T01:55:09.959Z,124.00
2019-02-19T01:57:39.426Z,133.50
2019-02-19T02:00:11.630Z,130.97
2019-02-19T02:02:41.090Z,169.10
2019-02-19T02:05:10.548Z,156.60
2019-02-19T02:07:40.043Z,177.70
2019-02-19T02:10:09.500Z,169.83
2019-02-19T02:12:38.948Z,129.47
2019-02-19T02:15:09.091Z,126.97
2019-02-19T02:17:38.566Z,136.20
2019-02-19T02:20:09.062Z,181.13
2019-02-19T02:22:38.566Z,132.53
2019-02-19T02:25:08.341Z,122.47
2019-02-19T02:27:37.814Z,123.07
2019-02-19T02:30:08.712Z,119.97
2019-02-19T02:32:38.160Z,124.37
2019-02-19T02:35:07.758Z,134.23
2019-02-19T02:37:37.258Z,157.27
2019-02-19T02:40:08.420Z,136.87
2019-02-19T02:42:37.886Z,142.03
2019-02-19T02:45:07.474Z,139.03
2019-02-19T02:47:37.063Z,187.67
2019-02-19T02:50:06.859Z,152.47
2019-02-19T02:52:36.345Z,129.30
2019-02-19T02:55:06.884Z,136.40
2019-02-19T02:57:36.338Z,127.43
2019-02-19T03:00:08.327Z,117.50
2019-02-19T03:02:37.777Z,125.27
2019-02-19T03:05:07.417Z,126.70
2019-02-19T03:07:44.327Z,123.77
2019-02-19T03:10:13.784Z,126.73
2019-02-19T03:12:43.247Z,130.57
2019-02-19T03:15:13.099Z,142.53
2019-02-19T03:17:42.552Z,162.10
2019-02-19T03:20:12.014Z,138.43
2019-02-19T03:22:41.491Z,129.23
2019-02-19T03:25:11.024Z,156.47
2019-02-19T03:27:40.484Z,148.80
2019-02-19T03:30:11.502Z,128.10
2019-02-19T03:32:40.962Z,142.17
2019-02-19T03:35:10.413Z,134.73
2019-02-19T03:37:39.901Z,129.70
2019-02-19T03:40:09.788Z,129.93
2019-02-19T03:42:40.175Z,145.80
2019-02-19T03:45:10.800Z,155.73
2019-02-19T03:47:40.299Z,159.87
2019-02-19T03:50:09.755Z,125.27
2019-02-19T03:52:39.234Z,124.20
2019-02-19T03:55:08.819Z,137.10
2019-02-19T03:57:38.352Z,139.13
2019-02-19T04:00:09.422Z,127.93
2019-02-19T04:02:38.886Z,130.97
2019-02-19T04:05:08.340Z,125.70
2019-02-19T04:07:37.821Z,128.90
2019-02-19T04:10:09.291Z,127.90
2019-02-19T04:12:38.757Z,123.90
2019-02-19T04:15:08.963Z,132.63
2019-02-19T04:17:38.433Z,171.60
2019-02-19T04:20:09.534Z,143.37
2019-02-19T04:22:39.015Z,139.87
2019-02-19T04:25:08.881Z,166.27
2019-02-19T04:27:38.333Z,131.00
2019-02-19T04:30:09.731Z,124.23
2019-02-19T04:32:39.184Z,165.63
2019-02-19T04:35:08.656Z,154.83
2019-02-19T04:37:38.161Z,184.00
2019-02-19T04:40:09.635Z,130.47
2019-02-19T04:42:39.158Z,165.07
2019-02-19T04:45:08.825Z,181.47
2019-02-19T04:47:38.300Z,141.40
2019-02-19T04:50:09.450Z,173.73
2019-02-19T04:52:38.921Z,185.27
2019-02-19T04:55:09.113Z,167.10
2019-02-19T04:57:38.569Z,173.33
2019-02-19T05:00:14.281Z,167.77
2019-02-19T05:02:43.738Z,172.47
2019-02-19T05:05:13.264Z,181.73
2019-02-19T05:07:42.755Z,132.10
2019-02-19T05:10:12.277Z,167.17
2019-02-19T05:12:41.723Z,166.90
2019-02-19T05:15:12.416Z,175.73
2019-02-19T05:17:41.939Z,147.43
2019-02-19T05:20:11.402Z,129.67
2019-02-19T05:22:40.904Z,121.63
2019-02-19T05:25:10.441Z,168.50
2019-02-19T05:27:39.910Z,159.60
2019-02-19T05:30:13.030Z,126.50
2019-02-19T05:32:42.497Z,146.57
2019-02-19T05:35:11.975Z,141.37
2019-02-19T05:37:41.460Z,146.07
2019-02-19T05:40:11.259Z,152.93
2019-02-19T05:42:40.717Z,136.93
2019-02-19T05:45:11.765Z,145.23
2019-02-19T05:47:41.225Z,174.03
2019-02-19T05:50:11.240Z,144.80
2019-02-19T05:52:40.822Z,157.80
2019-02-19T05:55:10.721Z,153.60
2019-02-19T05:57:40.169Z,132.27
2019-02-19T06:00:13.448Z,114.53
2019-02-19T06:02:42.902Z,138.07
2019-02-19T06:05:12.427Z,148.67
2019-02-19T06:07:41.908Z,164.57
2019-02-19T06:10:13.376Z,168.00
2019-02-19T06:12:42.825Z,169.77
2019-02-19T06:15:13.417Z,173.47
2019-02-19T06:17:42.875Z,119.93
2019-02-19T06:20:12.408Z,103.40
2019-02-19T06:22:41.897Z,113.33
2019-02-19T06:25:11.355Z,124.13
2019-02-19T06:27:40.810Z,121.83
2019-02-19T06:30:14.525Z,119.73
2019-02-19T06:32:43.976Z,109.30
2019-02-19T06:35:13.439Z,135.90
2019-02-19T06:37:42.965Z,124.63
2019-02-19T06:40:25.307Z,124.37
2019-02-19T06:42:55.029Z,132.30
2019-02-19T06:45:24.498Z,109.80
2019-02-19T06:47:53.960Z,118.73
2019-02-19T06:50:23.452Z,119.70
2019-02-19T06:52:52.963Z,107.70
2019-02-19T06:55:22.480Z,113.30
2019-02-19T06:57:52.033Z,102.73
2019-02-19T07:00:21.480Z,111.63
2019-02-19T07:02:58.912Z,102.30
2019-02-19T07:05:28.366Z,101.33
2019-02-19T07:07:57.836Z,101.47
2019-02-19T07:10:27.307Z,105.93
2019-02-19T07:12:56.772Z,109.93
2019-02-19T07:15:26.234Z,110.07
2019-02-19T07:17:55.722Z,99.40
2019-02-19T07:20:25.168Z,98.53
2019-02-19T07:22:54.630Z,128.43
2019-02-19T07:25:24.119Z,101.80
2019-02-19T07:27:53.569Z,101.67
2019-02-19T07:30:23.032Z,96.57
2019-02-19T07:32:52.522Z,112.77
2019-02-19T07:35:21.978Z,102.77
2019-02-19T07:37:51.442Z,127.93
2019-02-19T07:40:20.915Z,102.00
2019-02-19T07:42:50.381Z,110.57
2019-02-19T07:45:19.825Z,93.43
2019-02-19T07:47:49.318Z,93.77
2019-02-19T07:50:18.768Z,92.97
2019-02-19T07:52:48.220Z,102.70
2019-02-19T07:55:17.720Z,109.63
2019-02-19T07:57:47.247Z,118.20
2019-02-19T08:00:16.719Z,91.53
2019-02-19T08:02:46.189Z,109.60
2019-02-19T08:05:15.651Z,104.33
2019-02-19T08:07:45.099Z,127.20
2019-02-19T08:10:14.657Z,109.57
2019-02-19T08:12:44.118Z,117.93
2019-02-19T08:15:13.565Z,109.37
2019-02-19T08:17:43.066Z,89.40
2019-02-19T08:20:15.971Z,111.27
2019-02-19T08:22:43.700Z,99.87
2019-02-19T08:25:13.182Z,99.60
2019-02-19T08:27:42.655Z,119.07
2019-02-19T08:30:12.276Z,86.67
2019-02-19T08:32:41.777Z,115.37
2019-02-19T08:35:11.258Z,122.40
2019-02-19T08:37:40.710Z,90.33
2019-02-19T08:40:10.853Z,119.40
2019-02-19T08:42:40.318Z,107.20
2019-02-19T08:45:10.613Z,107.63
2019-02-19T08:47:42.621Z,86.40
2019-02-19T08:50:11.278Z,81.27
2019-02-19T08:52:40.730Z,91.03
2019-02-19T08:55:10.269Z,99.83
2019-02-19T08:57:39.722Z,81.87
2019-02-19T09:00:12.987Z,53.77
2019-02-19T09:02:42.500Z,47.70
2019-02-19T09:05:11.933Z,48.03
2019-02-19T09:07:41.382Z,50.07
2019-02-19T09:10:12.595Z,44.63
2019-02-19T09:12:42.075Z,45.57
2019-02-19T09:15:12.959Z,46.97
2019-02-19T09:17:51.306Z,45.47
2019-02-19T09:20:13.633Z,41.37
2019-02-19T09:22:43.084Z,35.47
2019-02-19T09:25:12.226Z,42.90
2019-02-19T09:27:43.312Z,46.73
2019-02-19T09:30:13.841Z,39.20
2019-02-19T09:32:43.327Z,44.20
2019-02-19T09:35:12.773Z,34.47
2019-02-19T09:37:42.267Z,45.90
2019-02-19T09:40:12.032Z,43.70
2019-02-19T09:42:41.492Z,42.53
2019-02-19T09:45:11.692Z,34.73
2019-02-19T09:47:41.243Z,36.73
2019-02-19T09:50:11.470Z,41.53
2019-02-19T09:52:40.960Z,37.77
2019-02-19T09:55:10.531Z,31.33
2019-02-19T09:57:40.016Z,41.80
2019-02-19T10:00:13.543Z,41.73
2019-02-19T10:02:43.937Z,38.50
2019-02-19T10:05:13.686Z,37.40
2019-02-19T10:07:43.203Z,38.43
2019-02-19T10:10:17.389Z,39.63
2019-02-19T10:12:46.874Z,34.30
2019-02-19T10:15:16.378Z,45.60
2019-02-19T10:17:45.845Z,29.87
2019-02-19T10:20:15.292Z,31.37
2019-02-19T10:22:44.782Z,32.97
2019-02-19T10:25:15.374Z,32.87
2019-02-19T10:27:44.863Z,36.43
2019-02-19T10:30:20.123Z,29.10
2019-02-19T10:32:49.618Z,26.80
2019-02-19T10:35:19.075Z,27.90
2019-02-19T10:37:48.560Z,26.20
2019-02-19T10:40:21.928Z,28.90
2019-02-19T10:42:51.387Z,30.47
2019-02-19T10:45:26.245Z,27.30
2019-02-19T10:47:55.702Z,27.93
2019-02-19T10:50:25.216Z,29.03
2019-02-19T10:52:54.698Z,26.77
2019-02-19T10:55:24.205Z,30.90
2019-02-19T10:57:53.658Z,28.87
2019-02-19T11:00:23.643Z,26.77
2019-02-19T11:02:53.075Z,30.33
2019-02-19T11:05:22.622Z,29.10
2019-02-19T11:07:52.118Z,31.67
2019-02-19T11:10:21.595Z,28.50
2019-02-19T11:12:52.600Z,28.13
2019-02-19T11:15:22.092Z,26.83
2019-02-19T11:17:51.544Z,28.57
2019-02-19T11:20:22.934Z,30.10
2019-02-19T11:22:52.423Z,29.00
2019-02-19T11:25:21.875Z,25.50
2019-02-19T11:27:51.352Z,24.57
2019-02-19T11:30:21.297Z,24.87
2019-02-19T11:32:50.764Z,24.53
2019-02-19T11:35:20.220Z,22.60
2019-02-19T11:37:49.711Z,24.87
2019-02-19T11:40:19.166Z,23.17
2019-02-19T11:42:48.626Z,25.67
2019-02-19T11:45:19.821Z,22.63
2019-02-19T11:47:49.277Z,27.23
2019-02-19T11:50:18.724Z,20.93
2019-02-19T11:52:48.289Z,23.93
2019-02-19T11:55:19.753Z,26.17
2019-02-19T11:57:49.220Z,24.07
2019-02-19T12:00:20.366Z,20.73
2019-02-19T12:02:49.811Z,17.10
2019-02-19T12:05:19.262Z,22.73
2019-02-19T12:07:48.762Z,23.20
2019-02-19T12:10:18.224Z,22.23
2019-02-19T12:12:47.686Z,23.70
2019-02-19T12:15:19.226Z,28.03
2019-02-19T12:17:48.600Z,23.60
2019-02-19T12:20:18.126Z,24.77
2019-02-19T12:22:47.623Z,19.60
2019-02-19T12:25:17.089Z,22.93
2019-02-19T12:27:46.555Z,20.43
2019-02-19T12:30:20.124Z,28.80
2019-02-19T12:32:49.576Z,29.77
2019-02-19T12:35:19.032Z,25.23
2019-02-19T12:37:48.516Z,22.50
2019-02-19T12:40:17.975Z,23.40
2019-02-19T12:42:47.541Z,23.13
2019-02-19T12:45:17.021Z,28.13
2019-02-19T12:47:46.486Z,25.53
2019-02-19T12:50:18.825Z,25.33
2019-02-19T12:52:48.309Z,24.63
2019-02-19T12:55:17.771Z,19.80
2019-02-19T12:57:47.234Z,23.27
2019-02-19T13:00:20.672Z,23.63
2019-02-19T13:02:50.143Z,23.07
2019-02-19T13:05:19.587Z,19.20
2019-02-19T13:07:49.071Z,23.07
2019-02-19T13:10:18.525Z,22.73
2019-02-19T13:12:49.139Z,27.00
2019-02-19T13:15:22.123Z,23.63
2019-02-19T13:17:51.584Z,23.60
2019-02-19T13:20:21.040Z,23.60
2019-02-19T13:22:50.535Z,23.60
2019-02-19T13:25:19.998Z,23.87
2019-02-19T13:27:49.454Z,22.73
2019-02-19T13:30:21.354Z,25.43
2019-02-19T13:32:50.821Z,24.33
2019-02-19T13:35:20.389Z,29.97
2019-02-19T13:37:49.875Z,24.27
2019-02-19T13:40:21.325Z,25.67
2019-02-19T13:42:50.794Z,26.47
2019-02-19T13:45:20.286Z,23.53
2019-02-19T13:47:49.892Z,27.50
2019-02-19T13:50:28.564Z,25.33
2019-02-19T13:52:59.665Z,26.40
2019-02-19T13:55:30.769Z,35.80
2019-02-19T13:58:00.242Z,28.17
2019-02-19T14:00:31.338Z,25.40
2019-02-19T14:03:00.791Z,27.63
2019-02-19T14:05:30.291Z,29.60
2019-02-19T14:07:59.749Z,37.30
2019-02-19T14:10:29.202Z,29.40
2019-02-19T14:12:58.690Z,28.13
2019-02-19T14:15:38.547Z,25.07
2019-02-19T14:18:09.670Z,25.87
2019-02-19T14:20:46.351Z,31.40
2019-02-19T14:23:17.487Z,27.90
2019-02-19T14:26:24.107Z,30.67
2019-02-19T14:28:58.349Z,32.27
2019-02-19T14:31:35.578Z,22.20
2019-02-19T14:34:25.109Z,29.60
2019-02-19T14:36:56.200Z,29.10
2019-02-19T14:39:45.354Z,30.70
2019-02-19T14:42:32.611Z,29.07
2019-02-19T14:45:06.586Z,29.73
2019-02-19T14:47:53.999Z,32.67
2019-02-19T14:50:31.121Z,32.27
2019-02-19T14:53:20.355Z,32.37
2019-02-19T14:56:00.062Z,33.80
2019-02-19T14:58:46.299Z,28.20
2019-02-19T15:01:17.426Z,32.40
2019-02-19T15:04:00.521Z,27.40
2019-02-19T15:06:44.307Z,24.80
2019-02-19T15:09:21.698Z,28.13
2019-02-19T15:11:58.788Z,28.87
2019-02-19T15:14:29.942Z,26.27
2019-02-19T15:17:16.442Z,25.93
2019-02-19T15:19:59.379Z,25.93
2019-02-19T15:22:35.987Z,29.40
2019-02-19T15:25:13.975Z,25.47
2019-02-19T15:27:50.703Z,26.60
2019-02-19T15:30:28.011Z,25.53
2019-02-19T15:33:02.201Z,28.27
2019-02-19T15:35:49.438Z,28.73
2019-02-19T15:38:38.603Z,20.40
2019-02-19T15:41:12.697Z,22.70
2019-02-19T15:43:55.636Z,23.77
2019-02-19T15:46:44.799Z,28.20
2019-02-19T15:49:32.021Z,19.53
2019-02-19T15:52:09.174Z,24.77
2019-02-19T15:54:56.200Z,28.83
2019-02-19T15:57:30.152Z,29.93
2019-02-19T16:00:03.790Z,26.77
2019-02-19T16:02:34.881Z,26.90
2019-02-19T16:05:15.241Z,27.77
2019-02-19T16:07:46.351Z,32.50
2019-02-19T16:10:17.455Z,25.90
2019-02-19T16:12:48.569Z,24.60
2019-02-19T16:15:37.417Z,30.67
2019-02-19T16:18:17.235Z,27.53
2019-02-19T16:20:48.342Z,29.60
2019-02-19T16:23:32.379Z,28.23
2019-02-19T16:26:09.441Z,29.70
2019-02-19T16:28:46.214Z,24.93
2019-02-19T16:31:25.758Z,25.73
2019-02-19T16:34:00.402Z,29.13
2019-02-19T16:36:31.539Z,28.33
2019-02-19T16:39:02.642Z,25.53
2019-02-19T16:41:33.791Z,23.57
2019-02-19T16:44:14.172Z,29.57
2019-02-19T16:46:45.323Z,35.63
2019-02-19T16:49:16.437Z,55.20
2019-02-19T16:51:59.315Z,42.30
2019-02-19T16:54:30.435Z,28.13
2019-02-19T16:57:01.537Z,25.53
2019-02-19T16:59:32.648Z,22.27
2019-02-19T17:02:05.444Z,19.77
2019-02-19T17:04:52.822Z,23.73
2019-02-19T17:07:26.667Z,19.37
2019-02-19T17:10:06.283Z,20.30
2019-02-19T17:12:39.877Z,19.53
2019-02-19T17:15:17.730Z,22.00
2019-02-19T17:18:03.692Z,18.53
2019-02-19T17:20:34.781Z,20.47
2019-02-19T17:23:21.304Z,19.23
2019-02-19T17:25:57.990Z,26.07
2019-02-19T17:28:34.835Z,18.87
2019-02-19T17:31:22.078Z,24.90
2019-02-19T17:34:09.417Z,23.83
2019-02-19T17:36:49.853Z,23.93
2019-02-19T17:39:39.418Z,27.07
2019-02-19T17:42:19.429Z,24.37
2019-02-19T17:44:56.102Z,29.70
2019-02-19T17:47:29.870Z,28.00
2019-02-19T17:50:00.962Z,27.30
2019-02-19T17:52:32.077Z,29.50
2019-02-19T17:55:19.633Z,27.57
2019-02-19T17:57:59.512Z,28.07
2019-02-19T18:00:30.598Z,22.57
2019-02-19T18:03:04.462Z,27.57
2019-02-19T18:05:38.563Z,18.80
2019-02-19T18:08:18.623Z,19.67
2019-02-19T18:11:01.413Z,17.20
2019-02-19T18:13:44.168Z,18.97
2019-02-19T18:16:18.430Z,22.50
2019-02-19T18:18:49.811Z,21.47
2019-02-19T18:21:19.489Z,21.43
2019-02-19T18:23:48.967Z,17.27
2019-02-19T18:26:18.425Z,16.83
2019-02-19T18:28:47.944Z,17.97
2019-02-19T18:31:17.463Z,16.40
2019-02-19T18:33:46.922Z,15.33
2019-02-19T18:36:16.366Z,15.07
2019-02-19T18:38:45.851Z,15.20
2019-02-19T18:41:15.327Z,18.73
2019-02-19T18:43:44.850Z,14.77
2019-02-19T18:46:14.323Z,12.50
2019-02-19T18:48:43.785Z,14.27
2019-02-19T18:51:13.235Z,13.40
2019-02-19T18:53:42.735Z,17.53
2019-02-19T18:56:12.169Z,14.87
2019-02-19T18:58:41.618Z,12.00
2019-02-19T19:01:11.110Z,16.27
2019-02-19T19:03:40.560Z,14.13
2019-02-19T19:06:10.002Z,19.53
2019-02-19T19:08:39.489Z,15.67
2019-02-19T19:11:08.937Z,27.83
2019-02-19T19:13:38.435Z,38.77
2019-02-19T19:16:09.526Z,18.87
2019-02-19T19:18:38.980Z,18.13
2019-02-19T19:21:08.451Z,19.27
2019-02-19T19:23:38.149Z,18.33
2019-02-19T19:26:07.589Z,17.23
2019-02-19T19:28:37.042Z,17.60
2019-02-19T19:31:06.641Z,14.93
2019-02-19T19:33:36.117Z,17.97
2019-02-19T19:36:07.163Z,17.90
2019-02-19T19:38:36.644Z,19.40
2019-02-19T19:41:06.101Z,20.27
2019-02-19T19:43:37.219Z,23.07
2019-02-19T19:46:06.903Z,20.37
2019-02-19T19:48:36.349Z,22.07
2019-02-19T19:51:05.999Z,22.73
2019-02-19T19:53:35.507Z,28.57
2019-02-19T19:56:06.195Z,20.40
2019-02-19T19:58:35.646Z,21.27
2019-02-19T20:01:05.397Z,27.67
2019-02-19T20:03:34.838Z,27.20
2019-02-19T20:06:04.309Z,25.90
2019-02-19T20:08:35.851Z,26.83
2019-02-19T20:11:05.311Z,27.43
2019-02-19T20:13:34.765Z,24.70
2019-02-19T20:16:04.337Z,28.73
2019-02-19T20:18:39.069Z,38.23
2019-02-19T20:21:05.191Z,35.47
2019-02-19T20:23:34.730Z,31.03
2019-02-19T20:26:04.203Z,32.87
2019-02-19T20:28:38.076Z,26.47
2019-02-19T20:31:06.639Z,31.30
2019-02-19T20:33:36.101Z,33.87
2019-02-19T20:36:05.552Z,28.80
2019-02-19T20:38:35.048Z,34.33
2019-02-19T20:41:04.589Z,27.60
2019-02-19T20:43:34.057Z,34.10
2019-02-19T20:46:03.551Z,40.00
2019-02-19T20:48:33.014Z,45.97
2019-02-19T20:51:02.504Z,45.03
2019-02-19T20:53:31.996Z,49.53
2019-02-19T20:56:01.455Z,48.40
2019-02-19T20:58:30.928Z,39.37
2019-02-19T21:01:00.396Z,41.00
2019-02-19T21:03:29.848Z,39.80
2019-02-19T21:05:59.357Z,36.00
2019-02-19T21:08:28.811Z,39.53
2019-02-19T21:10:58.259Z,28.77
2019-02-19T21:13:27.738Z,42.50
2019-02-19T21:15:57.205Z,43.70
2019-02-19T21:18:26.703Z,37.27
2019-02-19T21:20:56.150Z,40.47
2019-02-19T21:23:25.611Z,44.10
2019-02-19T21:25:55.115Z,50.00
2019-02-19T21:28:24.565Z,41.47
2019-02-19T21:30:54.017Z,39.20
2019-02-19T21:33:23.552Z,34.17
2019-02-19T21:35:57.630Z,33.87
2019-02-19T21:38:24.184Z,25.90
2019-02-19T21:40:53.671Z,39.13
2019-02-19T21:43:23.289Z,30.53
2019-02-19T21:45:52.788Z,30.70
2019-02-19T21:48:22.276Z,32.20
2019-02-19T21:50:51.730Z,33.23
2019-02-19T21:53:21.865Z,30.53
2019-02-19T21:55:51.350Z,26.40
2019-02-19T21:58:21.065Z,30.60
2019-02-19T22:00:50.514Z,28.30
2019-02-19T22:03:20.019Z,31.63
2019-02-19T22:05:49.461Z,31.57
2019-02-19T22:08:18.912Z,30.57
2019-02-19T22:10:48.383Z,33.60
2019-02-19T22:13:17.835Z,29.23
2019-02-19T22:15:47.281Z,36.63
2019-02-19T22:18:16.761Z,34.53
2019-02-19T22:20:53.714Z,33.13
2019-02-19T22:23:23.187Z,31.33
2019-02-19T22:25:52.633Z,32.50
2019-02-19T22:28:22.973Z,36.23
2019-02-19T22:30:52.514Z,32.33
2019-02-19T22:33:21.951Z,32.50
2019-02-19T22:35:51.398Z,30.23
2019-02-19T22:38:20.875Z,29.30
2019-02-19T22:40:55.215Z,31.90
2019-02-19T22:43:21.508Z,24.27
2019-02-19T22:45:50.991Z,28.10
2019-02-19T22:48:20.447Z,30.80
2019-02-19T22:50:49.901Z,24.73
2019-02-19T22:53:21.045Z,28.67
2019-02-19T22:55:52.133Z,23.97
2019-02-19T22:58:21.601Z,27.87
2019-02-19T23:01:11.469Z,26.80
2019-02-19T23:03:41.403Z,25.30
2019-02-19T23:06:10.854Z,29.80
2019-02-19T23:08:40.331Z,28.17
2019-02-19T23:11:09.790Z,25.97
2019-02-19T23:13:39.244Z,26.70
2019-02-19T23:16:08.717Z,26.40
2019-02-19T23:18:38.174Z,29.27
2019-02-19T23:21:07.639Z,31.10
2019-02-19T23:23:37.118Z,27.70
2019-02-19T23:26:06.559Z,29.00
2019-02-19T23:28:36.021Z,29.73
2019-02-19T23:31:05.506Z,28.90
2019-02-19T23:33:34.977Z,25.23
2019-02-19T23:36:09.019Z,27.90
2019-02-19T23:38:38.511Z,28.23
2019-02-19T23:41:07.958Z,27.47
2019-02-19T23:43:37.415Z,27.43
2019-02-19T23:46:06.910Z,27.17
2019-02-19T23:48:36.369Z,29.13
2019-02-19T23:51:05.828Z,28.40
2019-02-19T23:53:35.616Z,25.77
2019-02-19T23:56:05.076Z,26.53
2019-02-19T23:58:34.611Z,23.67
